メインページ
METAR-TAF:

METAR-TAF

空港 :

ダマスカス国際空港

ダマスカス, シリア

緯度: 33-25N, 経度: 036-31E, 海抜: 608m

現時点の気象観測

当レポートは58分前の12:00(UTC)に作成
無風
気温 22°C
湿度 53%
気圧 1015 hPa
視程10km以上
高度3000ftの雲はほとんどない
高度20000ftの雲は散在している

METAR: OSDI 211200Z 00000KT 9999 FEW030 SCT200 22/12 Q1015

時間: 15:58 (12:58 UTC)

予報

当レポートは2時間43分前の10:15(UTC)に作成
予報は21日の 12時(UTC)から 22日の 18時(UTC)まで有効
南/南西の風 15kt
視程: 8000m
高度3000ftの雲は散在している
高度10000ftの千切れ雲あり
21日の 12時(UTC)から 22日の 06時(UTC)まで一時的に
西の風 15kt、最大25ktの突風を伴う
視程: 6000m
高度2500ftの雲はほとんどない, 積乱雲.
高度3000ftの千切れ雲あり
高度10000ftの曇り
にわか雨

TAF: OSDI 211015Z 2112/2218 21015KT 8000 SCT030 BKN100 TEMPO 2112/2206 28015G25KT 6000 SHRA FEW025CB BKN030 OVC100

4,000以上の空港の気象観測と天気予報(METAR報とTAF報)

利用可能な観測所は地図上に黄色い丸と赤い丸で示す。

丸の上にカーソルを重ねると観測所名を参照できる。

次にクリックすると気象観測と天気予報を参照できる。

マップの切り替え:黒色「×」印の緑ボタンをクリックして拡大、「-」印の緑ボタンをクリックして縮小、緑色の三角印をクリックして隣りの地図に切り替え


METAR-TAF: